Aviation Digital Data Service (ADDS)

Output produced by METARs form (0027 UTC 20 April 2019)
found at http://www.aviationweather.gov/metar/data/
 
METAR text: LTCI 192350Z 02002KT 9999 -RA BKN030 OVC070 02/01 Q1009 NOSIG
Conditions at: LTCI (VAN , TR) observed 2350 UTC 19 April 2019
Temperature: 2.0°C (36°F)
Dewpoint: 1.0°C (34°F) [RH = 93%]
Pressure (altimeter): 29.79 inches Hg (1009.0 mb)
Winds: from the NNE (20 degrees) at 2 MPH (2 knots; 1.0 m/s)
Visibility: 6 or more miles (10+ km)
Ceiling: 3000 feet AGL
Clouds: broken clouds at 3000 feet AGL
overcast cloud deck at 7000 feet AGL
Weather: -RA  (light rain)

METAR text: LTCI 192250Z 00000KT 9999 -RA BKN030 OVC070 02/01 Q1009 RESHSNRA NOSIG
Conditions at: LTCI (VAN , TR) observed 2250 UTC 19 April 2019
Temperature: 2.0°C (36°F)
Dewpoint: 1.0°C (34°F) [RH = 93%]
Pressure (altimeter): 29.79 inches Hg (1009.0 mb)
Winds: calm
Visibility: 6 or more miles (10+ km)
Ceiling: 3000 feet AGL
Clouds: broken clouds at 3000 feet AGL
overcast cloud deck at 7000 feet AGL
Weather: -RA  (light rain)

METAR text: LTCI 192150Z 00000KT 8000 -SHSNRA BKN030 BKN070 01/01 Q1010 NOSIG
Conditions at: LTCI (VAN , TR) observed 2150 UTC 19 April 2019
Temperature: 1.0°C (34°F)
Dewpoint: 1.0°C (34°F) [RH = 100%]
Pressure (altimeter): 29.82 inches Hg (1010.0 mb)
Winds: calm
Visibility: 5 miles ( 8 km)
Ceiling: 3000 feet AGL
Clouds: broken clouds at 3000 feet AGL
broken clouds at 7000 feet AGL
Weather: -SHSN -SHRA  (light snow showers, light rain showers)

METAR text: LTCI 192050Z 00000KT 8000 -SHSNRA FEW025CB BKN030 BKN070 01/M00 Q1010 NOSIG
Conditions at: LTCI (VAN , TR) observed 2050 UTC 19 April 2019
Temperature: 1.0°C (34°F)
Dewpoint: 0.0°C (32°F) [RH = 93%]
Pressure (altimeter): 29.82 inches Hg (1010.0 mb)
Winds: calm
Visibility: 5 miles ( 8 km)
Ceiling: 3000 feet AGL
Clouds: few clouds at 2500 feet AGL
broken clouds at 3000 feet AGL
broken clouds at 7000 feet AGL
Weather: -SHSN -SHRA  (light snow showers, light rain showers)

METAR text: LTCI 191950Z 00000KT 9999 -SHRA FEW025CB BKN030 BKN080 03/01 Q1010 NOSIG
Conditions at: LTCI (VAN , TR) observed 1950 UTC 19 April 2019
Temperature: 3.0°C (37°F)
Dewpoint: 1.0°C (34°F) [RH = 87%]
Pressure (altimeter): 29.82 inches Hg (1010.0 mb)
Winds: calm
Visibility: 6 or more miles (10+ km)
Ceiling: 3000 feet AGL
Clouds: few clouds at 2500 feet AGL
broken clouds at 3000 feet AGL
broken clouds at 8000 feet AGL
Weather: -SHRA  (light rain showers)

METAR text: LTCI 191850Z VRB01G11KT 9999 -SHRA FEW020CB BKN030 BKN080 04/01 Q1010 NOSIG
Conditions at: LTCI (VAN , TR) observed 1850 UTC 19 April 2019
Temperature: 4.0°C (39°F)
Dewpoint: 1.0°C (34°F) [RH = 81%]
Pressure (altimeter): 29.82 inches Hg (1010.0 mb)
Winds: variable direction winds at 1 MPH (1 knots; 0.5 m/s)
gusting to 13 MPH (11 knots; 5.7 m/s)
Visibility: 6 or more miles (10+ km)
Ceiling: 3000 feet AGL
Clouds: few clouds at 2000 feet AGL
broken clouds at 3000 feet AGL
broken clouds at 8000 feet AGL
Weather: -SHRA  (light rain showers)

METAR text: LTCI 191847Z VRB01G11KT 9999 -SHRA FEW020CB SCT030 BKN070 04/01 Q1010 NOSIG RMK RWY21 VRB02KT
Conditions at: LTCI (VAN , TR) observed 1847 UTC 19 April 2019
Temperature: 4.0°C (39°F)
Dewpoint: 1.0°C (34°F) [RH = 81%]
Pressure (altimeter): 29.82 inches Hg (1010.0 mb)
Winds: variable direction winds at 1 MPH (1 knots; 0.5 m/s)
gusting to 13 MPH (11 knots; 5.7 m/s)
Visibility: 6 or more miles (10+ km)
Ceiling: 7000 feet AGL
Clouds: few clouds at 2000 feet AGL
scattered clouds at 3000 feet AGL
broken clouds at 7000 feet AGL
Weather: -SHRA  (light rain showers)

METAR text: LTCI 191750Z 00000KT 9999 SCT035 BKN080 05/01 Q1010 NOSIG
Conditions at: LTCI (VAN , TR) observed 1750 UTC 19 April 2019
Temperature: 5.0°C (41°F)
Dewpoint: 1.0°C (34°F) [RH = 75%]
Pressure (altimeter): 29.82 inches Hg (1010.0 mb)
Winds: calm
Visibility: 6 or more miles (10+ km)
Ceiling: 8000 feet AGL
Clouds: scattered clouds at 3500 feet AGL
broken clouds at 8000 feet AGL
Weather: no significant weather observed at this time

METAR text: LTCI 191650Z 00000KT 9999 FEW025TCU SCT030 BKN070 05/01 Q1010 TEMPO TL1800 -TSRA
Conditions at: LTCI (VAN , TR) observed 1650 UTC 19 April 2019
Temperature: 5.0°C (41°F)
Dewpoint: 1.0°C (34°F) [RH = 75%]
Pressure (altimeter): 29.82 inches Hg (1010.0 mb)
Winds: calm
Visibility: 6 or more miles (10+ km)
Ceiling: 7000 feet AGL
Clouds: few clouds at 2500 feet AGL
scattered clouds at 3000 feet AGL
broken clouds at 7000 feet AGL
Weather: no significant weather observed at this time

METAR text: LTCI 191550Z 00000KT 9999 FEW025CB SCT030 BKN070 05/01 Q1010 RESHRA TEMPO -TSRA
Conditions at: LTCI (VAN , TR) observed 1550 UTC 19 April 2019
Temperature: 5.0°C (41°F)
Dewpoint: 1.0°C (34°F) [RH = 75%]
Pressure (altimeter): 29.82 inches Hg (1010.0 mb)
Winds: calm
Visibility: 6 or more miles (10+ km)
Ceiling: 7000 feet AGL
Clouds: few clouds at 2500 feet AGL
scattered clouds at 3000 feet AGL
broken clouds at 7000 feet AGL
Weather: no significant weather observed at this time

METAR text: LTCI 191522Z 00000KT 9999 FEW025CB SCT030 BKN080 05/00 Q1010 RESHRA TEMPO -TSRA RMK RWY21 25002KT
Conditions at: LTCI (VAN , TR) observed 1522 UTC 19 April 2019
Temperature: 5.0°C (41°F)
Dewpoint: 0.0°C (32°F) [RH = 70%]
Pressure (altimeter): 29.82 inches Hg (1010.0 mb)
Winds: calm
Visibility: 6 or more miles (10+ km)
Ceiling: 8000 feet AGL
Clouds: few clouds at 2500 feet AGL
scattered clouds at 3000 feet AGL
broken clouds at 8000 feet AGL
Weather: no significant weather observed at this time

METAR text: LTCI 191450Z 00000KT 9999 -SHRA FEW025CB SCT030 BKN070 05/01 Q1010 TEMPO -TSRA
Conditions at: LTCI (VAN , TR) observed 1450 UTC 19 April 2019
Temperature: 5.0°C (41°F)
Dewpoint: 1.0°C (34°F) [RH = 75%]
Pressure (altimeter): 29.82 inches Hg (1010.0 mb)
Winds: calm
Visibility: 6 or more miles (10+ km)
Ceiling: 7000 feet AGL
Clouds: few clouds at 2500 feet AGL
scattered clouds at 3000 feet AGL
broken clouds at 7000 feet AGL
Weather: -SHRA  (light rain showers)

METAR text: LTCI 191350Z 00000KT 9999 -SHRA FEW025CB SCT030 BKN070 05/00 Q1011 TEMPO FM1500 -TSRA
Conditions at: LTCI (VAN , TR) observed 1350 UTC 19 April 2019
Temperature: 5.0°C (41°F)
Dewpoint: 0.0°C (32°F) [RH = 70%]
Pressure (altimeter): 29.85 inches Hg (1011.0 mb)
Winds: calm
Visibility: 6 or more miles (10+ km)
Ceiling: 7000 feet AGL
Clouds: few clouds at 2500 feet AGL
scattered clouds at 3000 feet AGL
broken clouds at 7000 feet AGL
Weather: -SHRA  (light rain showers)

METAR text: LTCI 191309Z 00000KT 9999 -SHRA FEW025CB SCT030 BKN070 05/M00 Q1011 NOSIG RMK RWY21 24005KT 150V300
Conditions at: LTCI (VAN , TR) observed 1309 UTC 19 April 2019
Temperature: 5.0°C (41°F)
Dewpoint: 0.0°C (32°F) [RH = 70%]
Pressure (altimeter): 29.85 inches Hg (1011.0 mb)
Winds: calm
Visibility: 6 or more miles (10+ km)
Ceiling: 7000 feet AGL
Clouds: few clouds at 2500 feet AGL
scattered clouds at 3000 feet AGL
broken clouds at 7000 feet AGL
Weather: -SHRA  (light rain showers)

METAR text: LTCI 191250Z 00000KT 9999 -SHRA FEW025TCU SCT030 BKN070 05/M00 Q1011 NOSIG
Conditions at: LTCI (VAN , TR) observed 1250 UTC 19 April 2019
Temperature: 5.0°C (41°F)
Dewpoint: 0.0°C (32°F) [RH = 70%]
Pressure (altimeter): 29.85 inches Hg (1011.0 mb)
Winds: calm
Visibility: 6 or more miles (10+ km)
Ceiling: 7000 feet AGL
Clouds: few clouds at 2500 feet AGL
scattered clouds at 3000 feet AGL
broken clouds at 7000 feet AGL
Weather: -SHRA  (light rain showers)

METAR text: LTCI 191225Z 00000KT 9999 -SHRA SCT030 BKN070 06/M01 Q1011 NOSIG RMK RWY21 27006KT
Conditions at: LTCI (VAN , TR) observed 1225 UTC 19 April 2019
Temperature: 6.0°C (43°F)
Dewpoint: -1.0°C (30°F) [RH = 61%]
Pressure (altimeter): 29.85 inches Hg (1011.0 mb)
Winds: calm
Visibility: 6 or more miles (10+ km)
Ceiling: 7000 feet AGL
Clouds: scattered clouds at 3000 feet AGL
broken clouds at 7000 feet AGL
Weather: -SHRA  (light rain showers)

METAR text: LTCI 191150Z 00000G11KT 9999 SCT030 BKN070 07/M01 Q1011 NOSIG
Conditions at: LTCI (VAN , TR) observed 1150 UTC 19 April 2019
Temperature: 7.0°C (45°F)
Dewpoint: -1.0°C (30°F) [RH = 57%]
Pressure (altimeter): 29.85 inches Hg (1011.0 mb)
Winds: calm
Visibility: 6 or more miles (10+ km)
Ceiling: 7000 feet AGL
Clouds: scattered clouds at 3000 feet AGL
broken clouds at 7000 feet AGL
Weather: no significant weather observed at this time

METAR text: LTCI 191050Z 00000KT 9999 SCT025 BKN070 07/01 Q1011 RESHRA NOSIG
Conditions at: LTCI (VAN , TR) observed 1050 UTC 19 April 2019
Temperature: 7.0°C (45°F)
Dewpoint: 1.0°C (34°F) [RH = 66%]
Pressure (altimeter): 29.85 inches Hg (1011.0 mb)
Winds: calm
Visibility: 6 or more miles (10+ km)
Ceiling: 7000 feet AGL
Clouds: scattered clouds at 2500 feet AGL
broken clouds at 7000 feet AGL
Weather: no significant weather observed at this time

METAR text: LTCI 190950Z 00000KT 9999 -SHRA SCT025 BKN070 06/01 Q1012 NOSIG
Conditions at: LTCI (VAN , TR) observed 0950 UTC 19 April 2019
Temperature: 6.0°C (43°F)
Dewpoint: 1.0°C (34°F) [RH = 70%]
Pressure (altimeter): 29.88 inches Hg (1012.0 mb)
Winds: calm
Visibility: 6 or more miles (10+ km)
Ceiling: 7000 feet AGL
Clouds: scattered clouds at 2500 feet AGL
broken clouds at 7000 feet AGL
Weather: -SHRA  (light rain showers)

METAR text: LTCI 190850Z 25005KT 220V290 9999 SCT035 BKN070 07/M01 Q1012 NOSIG
Conditions at: LTCI (VAN , TR) observed 0850 UTC 19 April 2019
Temperature: 7.0°C (45°F)
Dewpoint: -1.0°C (30°F) [RH = 57%]
Pressure (altimeter): 29.88 inches Hg (1012.0 mb)
Winds: from the WSW (250 degrees) at 6 MPH (5 knots; 2.6 m/s)
Visibility: 6 or more miles (10+ km)
Ceiling: 7000 feet AGL
Clouds: scattered clouds at 3500 feet AGL
broken clouds at 7000 feet AGL
Weather: no significant weather observed at this time

METAR text: LTCI 190750Z 26012KT 220V280 9999 SCT030 BKN070 07/M03 Q1012 NOSIG
Conditions at: LTCI (VAN , TR) observed 0750 UTC 19 April 2019
Temperature: 7.0°C (45°F)
Dewpoint: -3.0°C (27°F) [RH = 49%]
Pressure (altimeter): 29.88 inches Hg (1012.0 mb)
Winds: from the W (260 degrees) at 14 MPH (12 knots; 6.2 m/s)
Visibility: 6 or more miles (10+ km)
Ceiling: 7000 feet AGL
Clouds: scattered clouds at 3000 feet AGL
broken clouds at 7000 feet AGL
Weather: no significant weather observed at this time

METAR text: LTCI 190650Z 29003KT 260V320 9999 SCT030 BKN080 08/M02 Q1012 NOSIG
Conditions at: LTCI (VAN , TR) observed 0650 UTC 19 April 2019
Temperature: 8.0°C (46°F)
Dewpoint: -2.0°C (28°F) [RH = 49%]
Pressure (altimeter): 29.88 inches Hg (1012.0 mb)
Winds: from the WNW (290 degrees) at 3 MPH (3 knots; 1.5 m/s)
Visibility: 6 or more miles (10+ km)
Ceiling: 8000 feet AGL
Clouds: scattered clouds at 3000 feet AGL
broken clouds at 8000 feet AGL
Weather: no significant weather observed at this time

METAR text: LTCI 190550Z 32004KT 290V350 9999 SCT030 BKN080 08/M01 Q1012 NOSIG
Conditions at: LTCI (VAN , TR) observed 0550 UTC 19 April 2019
Temperature: 8.0°C (46°F)
Dewpoint: -1.0°C (30°F) [RH = 53%]
Pressure (altimeter): 29.88 inches Hg (1012.0 mb)
Winds: from the NW (320 degrees) at 5 MPH (4 knots; 2.1 m/s)
Visibility: 6 or more miles (10+ km)
Ceiling: 8000 feet AGL
Clouds: scattered clouds at 3000 feet AGL
broken clouds at 8000 feet AGL
Weather: no significant weather observed at this time

METAR text: LTCI 190450Z 29002KT 9999 SCT035 BKN100 06/M02 Q1012 NOSIG
Conditions at: LTCI (VAN , TR) observed 0450 UTC 19 April 2019
Temperature: 6.0°C (43°F)
Dewpoint: -2.0°C (28°F) [RH = 56%]
Pressure (altimeter): 29.88 inches Hg (1012.0 mb)
Winds: from the WNW (290 degrees) at 2 MPH (2 knots; 1.0 m/s)
Visibility: 6 or more miles (10+ km)
Ceiling: 10000 feet AGL
Clouds: scattered clouds at 3500 feet AGL
broken clouds at 10000 feet AGL
Weather: no significant weather observed at this time

METAR text: LTCI 190350Z VRB02KT 9999 SCT035 BKN070 05/M01 Q1012 NOSIG
Conditions at: LTCI (VAN , TR) observed 0350 UTC 19 April 2019
Temperature: 5.0°C (41°F)
Dewpoint: -1.0°C (30°F) [RH = 65%]
Pressure (altimeter): 29.88 inches Hg (1012.0 mb)
Winds: variable direction winds at 2 MPH (2 knots; 1.0 m/s)
Visibility: 6 or more miles (10+ km)
Ceiling: 7000 feet AGL
Clouds: scattered clouds at 3500 feet AGL
broken clouds at 7000 feet AGL
Weather: no significant weather observed at this time

METAR text: LTCI 190250Z 00000KT 9999 SCT035 BKN070 03/M02 Q1012 NOSIG
Conditions at: LTCI (VAN , TR) observed 0250 UTC 19 April 2019
Temperature: 3.0°C (37°F)
Dewpoint: -2.0°C (28°F) [RH = 70%]
Pressure (altimeter): 29.88 inches Hg (1012.0 mb)
Winds: calm
Visibility: 6 or more miles (10+ km)
Ceiling: 7000 feet AGL
Clouds: scattered clouds at 3500 feet AGL
broken clouds at 7000 feet AGL
Weather: no significant weather observed at this time

METAR text: LTCI 190150Z 00000KT 9999 SCT035 BKN070 03/M01 Q1012 NOSIG
Conditions at: LTCI (VAN , TR) observed 0150 UTC 19 April 2019
Temperature: 3.0°C (37°F)
Dewpoint: -1.0°C (30°F) [RH = 75%]
Pressure (altimeter): 29.88 inches Hg (1012.0 mb)
Winds: calm
Visibility: 6 or more miles (10+ km)
Ceiling: 7000 feet AGL
Clouds: scattered clouds at 3500 feet AGL
broken clouds at 7000 feet AGL
Weather: no significant weather observed at this time

METAR text: LTCI 190050Z 00000KT 9999 SCT035 BKN070 03/01 Q1013 RETSRA NOSIG
Conditions at: LTCI (VAN , TR) observed 0050 UTC 19 April 2019
Temperature: 3.0°C (37°F)
Dewpoint: 1.0°C (34°F) [RH = 87%]
Pressure (altimeter): 29.91 inches Hg (1013.0 mb)
Winds: calm
Visibility: 6 or more miles (10+ km)
Ceiling: 7000 feet AGL
Clouds: scattered clouds at 3500 feet AGL
broken clouds at 7000 feet AGL
Weather: no significant weather observed at this time

METAR text: LTCI 190003Z 10004KT 9999 SCT030 BKN070 03/00 Q1013 RETSRA NOSIG RMK RWY21 10006KT
Conditions at: LTCI (VAN , TR) observed 0003 UTC 19 April 2019
Temperature: 3.0°C (37°F)
Dewpoint: 0.0°C (32°F) [RH = 81%]
Pressure (altimeter): 29.91 inches Hg (1013.0 mb)
Winds: from the E (100 degrees) at 5 MPH (4 knots; 2.1 m/s)
Visibility: 6 or more miles (10+ km)
Ceiling: 7000 feet AGL
Clouds: scattered clouds at 3000 feet AGL
broken clouds at 7000 feet AGL
Weather: no significant weather observed at this time

METAR text: LTCI 182350Z 11006KT 9999 -TSRA FEW020CB SCT030 BKN070 03/01 Q1013 BECMG TL0050 NSW
Conditions at: LTCI (VAN , TR) observed 2350 UTC 18 April 2019
Temperature: 3.0°C (37°F)
Dewpoint: 1.0°C (34°F) [RH = 87%]
Pressure (altimeter): 29.91 inches Hg (1013.0 mb)
Winds: from the ESE (110 degrees) at 7 MPH (6 knots; 3.1 m/s)
Visibility: 6 or more miles (10+ km)
Ceiling: 7000 feet AGL
Clouds: few clouds at 2000 feet AGL
scattered clouds at 3000 feet AGL
broken clouds at 7000 feet AGL
Weather: -TSRA  (light rain associated with thunderstorm(s))

METAR text: LTCI 182250Z 11004KT 090V150 9999 -TSRA FEW020CB SCT030 BKN070 03/01 Q1014 BECMG TL2350 NSW
Conditions at: LTCI (VAN , TR) observed 2250 UTC 18 April 2019
Temperature: 3.0°C (37°F)
Dewpoint: 1.0°C (34°F) [RH = 87%]
Pressure (altimeter): 29.94 inches Hg (1014.0 mb)
Winds: from the ESE (110 degrees) at 5 MPH (4 knots; 2.1 m/s)
Visibility: 6 or more miles (10+ km)
Ceiling: 7000 feet AGL
Clouds: few clouds at 2000 feet AGL
scattered clouds at 3000 feet AGL
broken clouds at 7000 feet AGL
Weather: -TSRA  (light rain associated with thunderstorm(s))

METAR text: LTCI 182150Z 00000KT 9999 -TSRA FEW020CB SCT030 BKN070 04/01 Q1014 RETS BECMG TL2250 NSW
Conditions at: LTCI (VAN , TR) observed 2150 UTC 18 April 2019
Temperature: 4.0°C (39°F)
Dewpoint: 1.0°C (34°F) [RH = 81%]
Pressure (altimeter): 29.94 inches Hg (1014.0 mb)
Winds: calm
Visibility: 6 or more miles (10+ km)
Ceiling: 7000 feet AGL
Clouds: few clouds at 2000 feet AGL
scattered clouds at 3000 feet AGL
broken clouds at 7000 feet AGL
Weather: -TSRA  (light rain associated with thunderstorm(s))

METAR text: LTCI 182135Z 00000KT 9999 TS FEW020CB SCT030 BKN070 03/00 Q1014 BECMG TL2235 NSW RMK RWY21 VRB02KT
Conditions at: LTCI (VAN , TR) observed 2135 UTC 18 April 2019
Temperature: 3.0°C (37°F)
Dewpoint: 0.0°C (32°F) [RH = 81%]
Pressure (altimeter): 29.94 inches Hg (1014.0 mb)
Winds: calm
Visibility: 6 or more miles (10+ km)
Ceiling: 7000 feet AGL
Clouds: few clouds at 2000 feet AGL
scattered clouds at 3000 feet AGL
broken clouds at 7000 feet AGL
Weather: TS  (thunderstorm)

METAR text: LTCI 182050Z VRB01KT 9999 FEW035 SCT070 04/M00 Q1015 NOSIG
Conditions at: LTCI (VAN , TR) observed 2050 UTC 18 April 2019
Temperature: 4.0°C (39°F)
Dewpoint: 0.0°C (32°F) [RH = 75%]
Pressure (altimeter): 29.97 inches Hg (1015.0 mb)
Winds: variable direction winds at 1 MPH (1 knots; 0.5 m/s)
Visibility: 6 or more miles (10+ km)
Ceiling: at least 12,000 feet AGL
Clouds: few clouds at 3500 feet AGL
scattered clouds at 7000 feet AGL
Weather: no significant weather observed at this time

METAR text: LTCI 181950Z 00000KT 9999 FEW035 SCT070 04/01 Q1015 NOSIG
Conditions at: LTCI (VAN , TR) observed 1950 UTC 18 April 2019
Temperature: 4.0°C (39°F)
Dewpoint: 1.0°C (34°F) [RH = 81%]
Pressure (altimeter): 29.97 inches Hg (1015.0 mb)
Winds: calm
Visibility: 6 or more miles (10+ km)
Ceiling: at least 12,000 feet AGL
Clouds: few clouds at 3500 feet AGL
scattered clouds at 7000 feet AGL
Weather: no significant weather observed at this time

METAR text: LTCI 181850Z 02005KT 9999 SCT035 BKN070 04/01 Q1015 NOSIG
Conditions at: LTCI (VAN , TR) observed 1850 UTC 18 April 2019
Temperature: 4.0°C (39°F)
Dewpoint: 1.0°C (34°F) [RH = 81%]
Pressure (altimeter): 29.97 inches Hg (1015.0 mb)
Winds: from the NNE (20 degrees) at 6 MPH (5 knots; 2.6 m/s)
Visibility: 6 or more miles (10+ km)
Ceiling: 7000 feet AGL
Clouds: scattered clouds at 3500 feet AGL
broken clouds at 7000 feet AGL
Weather: no significant weather observed at this time

METAR text: LTCI 181750Z 00000KT 9999 SCT035 BKN070 06/02 Q1015 NOSIG
Conditions at: LTCI (VAN , TR) observed 1750 UTC 18 April 2019
Temperature: 6.0°C (43°F)
Dewpoint: 2.0°C (36°F) [RH = 75%]
Pressure (altimeter): 29.97 inches Hg (1015.0 mb)
Winds: calm
Visibility: 6 or more miles (10+ km)
Ceiling: 7000 feet AGL
Clouds: scattered clouds at 3500 feet AGL
broken clouds at 7000 feet AGL
Weather: no significant weather observed at this time

METAR text: LTCI 181650Z 29008KT 9999 SCT035 BKN070 07/01 Q1015 NOSIG
Conditions at: LTCI (VAN , TR) observed 1650 UTC 18 April 2019
Temperature: 7.0°C (45°F)
Dewpoint: 1.0°C (34°F) [RH = 66%]
Pressure (altimeter): 29.97 inches Hg (1015.0 mb)
Winds: from the WNW (290 degrees) at 9 MPH (8 knots; 4.1 m/s)
Visibility: 6 or more miles (10+ km)
Ceiling: 7000 feet AGL
Clouds: scattered clouds at 3500 feet AGL
broken clouds at 7000 feet AGL
Weather: no significant weather observed at this time

METAR text: LTCI 181550Z 22003KT 170V280 9999 SCT035 BKN070 07/00 Q1014 NOSIG
Conditions at: LTCI (VAN , TR) observed 1550 UTC 18 April 2019
Temperature: 7.0°C (45°F)
Dewpoint: 0.0°C (32°F) [RH = 61%]
Pressure (altimeter): 29.94 inches Hg (1014.0 mb)
Winds: from the SW (220 degrees) at 3 MPH (3 knots; 1.5 m/s)
Visibility: 6 or more miles (10+ km)
Ceiling: 7000 feet AGL
Clouds: scattered clouds at 3500 feet AGL
broken clouds at 7000 feet AGL
Weather: no significant weather observed at this time

METAR text: LTCI 181450Z 30010KT 9999 SCT035 BKN070 07/01 Q1014 NOSIG
Conditions at: LTCI (VAN , TR) observed 1450 UTC 18 April 2019
Temperature: 7.0°C (45°F)
Dewpoint: 1.0°C (34°F) [RH = 66%]
Pressure (altimeter): 29.94 inches Hg (1014.0 mb)
Winds: from the WNW (300 degrees) at 12 MPH (10 knots; 5.1 m/s)
Visibility: 6 or more miles (10+ km)
Ceiling: 7000 feet AGL
Clouds: scattered clouds at 3500 feet AGL
broken clouds at 7000 feet AGL
Weather: no significant weather observed at this time

METAR text: LTCI 181350Z 31012KT 9999 SCT035 BKN070 08/02 Q1014 NOSIG
Conditions at: LTCI (VAN , TR) observed 1350 UTC 18 April 2019
Temperature: 8.0°C (46°F)
Dewpoint: 2.0°C (36°F) [RH = 66%]
Pressure (altimeter): 29.94 inches Hg (1014.0 mb)
Winds: from the NW (310 degrees) at 14 MPH (12 knots; 6.2 m/s)
Visibility: 6 or more miles (10+ km)
Ceiling: 7000 feet AGL
Clouds: scattered clouds at 3500 feet AGL
broken clouds at 7000 feet AGL
Weather: no significant weather observed at this time

METAR text: LTCI 181250Z 31011KT 9999 SCT035 BKN070 09/01 Q1015 NOSIG
Conditions at: LTCI (VAN , TR) observed 1250 UTC 18 April 2019
Temperature: 9.0°C (48°F)
Dewpoint: 1.0°C (34°F) [RH = 57%]
Pressure (altimeter): 29.97 inches Hg (1015.0 mb)
Winds: from the NW (310 degrees) at 13 MPH (11 knots; 5.7 m/s)
Visibility: 6 or more miles (10+ km)
Ceiling: 7000 feet AGL
Clouds: scattered clouds at 3500 feet AGL
broken clouds at 7000 feet AGL
Weather: no significant weather observed at this time

Forecast for: LTCI (VAN , TR)
Text: TAF LTCI 192240Z 2000/2009 VRB02KT 8000 -RASN BKN030 BKN070
Forecast period: 0000 to 0900 UTC 20 April 2019
Forecast type: FROM: standard forecast or significant change
Winds: variable direction winds at 2 MPH (2 knots; 1.0 m/s)
Visibility: 5 miles (8 km)
Ceiling: 3000 feet AGL
Clouds: broken clouds at 3000 feet AGL
broken clouds at 7000 feet AGL
Weather: -RA -SN  (light rain, light snow)